Lebanon, Kansas
Current Conditions -  °F | °C
As of 9:55 AM on Friday 28 Nov 2014 (Local Time) from KCNK Reporting Station
Clear Clear  
Wind Chill:   Ceiling: Unl
Heat Index:   Visibility: 10mi
Dew Point: -1°   Wind: 7mph
Humidity: 54%   Direction: 210°SSW
Pressure: 29.87"   Gusts: NA
Location:  39.81°N, 98.56°W
Report Text: KCNK 281555Z AUTO 21006KT 10SM CLR 08/M01 A2987 RMK AO2 SLP123 T00781011
Loading
Personal Weather Stations






























Interactive Weather Map New forecast layout! Learn more

10-Day Weather Forecast

Advertisements
Track Severe Weather on mobile